Date,TemperatureHighF,TemperatureAvgF,TemperatureLowF,DewpointHighF,DewpointAvgF,DewpointLowF,HumidityHigh,HumidityAvg,HumidityLow,PressureMaxIn,PressureMinIn,WindSpeedMaxMPH,WindSpeedAvgMPH,GustSpeedMaxMPH,PrecipitationSumIn
2013-1-1,28.4,18.1,10.8,17.8,11.0,3.0,80,73,61,30.19,30.09,3,1,5,0.00
2013-1-2,16.5,12.2,7.3,9.1,5.2,-1.0,76,73,68,30.17,30.05,2,0,3,0.00
2013-1-3,29.7,17.5,6.4,19.1,8.2,-2.2,75,66,58,30.05,29.91,10,2,18,0.00
2013-1-4,37.9,29.4,22.1,26.7,20.0,12.9,75,68,58,30.05,29.96,9,3,17,0.03
2013-1-5,30.0,26.7,24.3,22.2,18.6,15.1,81,71,63,29.99,29.90,9,2,14,0.00
2013-1-6,37.2,31.0,24.3,28.2,24.2,17.5,80,76,66,29.97,29.86,9,2,15,0.03
2013-1-7,43.3,37.4,32.7,34.6,30.6,26.1,91,76,66,29.97,29.81,10,5,20,0.02
2013-1-8,43.0,39.2,36.3,36.7,33.4,28.8,89,80,70,30.00,29.81,9,5,22,0.00
2013-1-9,41.7,35.7,26.8,32.2,27.1,19.3,78,70,61,29.81,29.60,5,3,12,0.00
2013-1-10,31.3,26.1,23.2,22.5,16.8,13.6,76,68,56,29.79,29.68,7,2,10,0.00
2013-1-11,27.1,22.6,18.1,16.1,11.8,9.1,71,63,51,30.00,29.75,4,2,7,0.00
2013-1-12,25.3,18.3,14.0,11.0,6.7,4.4,68,60,48,30.04,29.92,9,3,14,0.00
2013-1-13,26.1,18.6,14.0,8.3,4.9,2.0,68,55,42,30.13,29.99,5,1,8,0.03
2013-1-14,34.3,24.9,16.5,19.6,10.5,1.0,67,54,46,30.18,30.08,10,5,20,0.00
2013-1-15,41.4,33.5,25.7,25.5,19.1,14.0,64,56,42,30.35,30.14,9,3,17,0.00
2013-1-16,47.7,40.5,35.8,24.3,19.1,14.9,49,42,35,30.33,30.22,8,3,12,0.00
2013-1-17,47.5,38.1,32.2,23.4,19.0,14.8,58,46,36,30.24,30.13,12,4,18,0.00
2013-1-18,46.9,36.8,31.5,24.1,19.3,15.9,59,49,37,30.14,30.08,11,4,19,0.00
2013-1-19,50.4,38.5,32.0,24.0,18.8,14.7,57,46,32,30.16,30.10,8,3,13,0.00
2013-1-20,43.2,34.0,28.6,20.1,16.9,12.2,56,50,38,30.19,30.07,10,2,19,0.00
2013-1-21,48.4,34.7,25.3,19.0,14.3,9.2,53,44,29,30.08,29.97,12,5,23,0.00
2013-1-22,42.1,34.3,28.0,21.1,16.4,10.7,59,48,40,29.97,29.83,11,2,17,0.00
2013-1-23,47.1,39.2,34.7,33.3,24.6,16.8,78,57,40,29.90,29.70,5,2,18,0.00
2013-1-24,46.6,39.7,33.3,36.3,32.3,29.1,89,75,59,29.98,29.90,7,2,11,0.00
2013-1-25,43.7,40.9,36.9,38.2,36.0,33.1,88,83,75,29.92,29.72,8,4,16,0.00
2013-1-26,38.7,33.9,30.0,33.1,24.1,18.4,89,67,52,29.79,29.71,4,2,9,0.00
2013-1-27,33.1,29.8,28.0,21.2,20.1,19.5,70,67,61,29.83,29.80,6,4,9,0.00
2013-1-30,46.4,46.2,46.0,33.3,33.2,33.0,60,60,60,30.21,30.20,3,1,5,0.00
2013-2-3,50.7,47.7,44.4,28.9,26.3,25.2,48,43,38,30.02,30.00,2,1,3,0.00
2013-2-15,51.6,51.0,50.4,35.5,35.2,34.8,56,54,53,30.18,30.12,2,1,3,0.00
2013-2-23,34.2,34.1,34.0,23.4,22.8,22.4,64,63,62,30.01,30.00,1,0,2,0.00
2013-2-25,32.9,32.9,32.9,24.2,24.2,24.2,70,70,70,29.95,29.95,3,2,7,0.00
2013-2-28,50.4,48.3,45.3,38.7,37.3,36.1,71,65,60,30.23,30.15,4,3,10,0.00
2013-3-1,56.8,50.4,45.1,37.4,33.9,30.4,57,53,46,30.24,30.13,8,2,15,0.00
2013-3-2,53.4,48.7,42.4,34.4,30.3,27.0,59,49,39,30.14,29.95,7,2,11,0.00
2013-3-6,40.5,37.4,35.2,32.1,30.3,27.0,83,76,59,29.56,29.47,6,3,9,0.00
2013-3-7,37.8,36.9,36.5,23.6,23.4,23.1,59,58,55,29.81,29.80,0,0,1,0.00
2013-3-8,34.3,34.1,33.6,30.2,30.0,29.5,85,85,85,29.87,29.86,2,2,5,0.00
2013-3-9,49.8,46.0,39.4,21.9,19.8,18.3,48,36,31,30.23,30.18,3,2,7,0.00
2013-3-10,56.5,49.3,41.5,34.1,30.1,20.6,66,49,26,30.20,30.16,5,2,11,0.00
2013-3-11,53.4,48.0,41.5,38.4,36.3,31.1,76,64,55,30.19,30.07,6,2,11,0.00
2013-3-12,59.2,49.1,39.2,38.2,30.6,23.4,79,52,30,30.09,29.98,8,3,12,0.00
2013-3-13,61.7,50.7,43.9,36.4,30.0,21.9,59,46,35,30.08,30.00,8,2,12,0.00
2013-3-14,65.1,52.6,43.5,34.3,27.1,17.5,57,39,21,30.03,29.94,7,3,16,0.00
2013-3-15,57.2,47.2,41.2,36.7,31.6,25.6,68,55,39,30.07,29.99,4,1,6,0.00
2013-3-16,50.0,43.3,36.1,31.3,27.6,23.0,71,54,43,30.00,29.80,7,4,15,0.00
2013-3-19,47.3,43.5,42.4,38.5,35.8,26.7,84,75,45,29.77,29.64,2,1,6,0.00
2013-3-20,46.6,43.3,39.7,40.4,35.5,24.7,86,75,47,29.76,29.52,7,3,20,0.00
2013-3-21,37.9,37.8,37.8,17.8,17.7,17.7,44,44,44,29.97,29.97,5,4,7,0.00
2013-3-25,48.2,44.8,39.9,28.6,27.3,26.3,58,50,45,29.84,29.78,4,2,6,0.00
2013-3-26,47.1,44.0,36.7,34.8,32.7,26.4,79,65,58,29.83,29.81,4,2,5,0.00
2013-3-27,55.8,48.4,42.1,39.6,37.6,36.1,83,67,48,29.87,29.77,5,1,9,0.00
2013-3-28,55.9,46.4,41.0,42.7,38.9,36.4,88,76,54,29.99,29.86,5,1,7,0.00
2013-3-29,58.1,48.5,39.7,43.0,39.4,36.4,89,72,52,30.07,29.99,4,2,11,0.00
2013-3-30,65.8,52.3,41.2,43.8,39.6,37.0,87,64,39,30.08,29.94,4,2,9,0.00
2013-3-31,64.0,52.5,42.6,41.1,36.9,33.2,70,57,37,29.94,29.80,4,2,11,0.00
2013-4-1,61.5,51.1,43.3,41.9,38.5,35.4,75,63,44,29.97,29.84,5,3,9,0.00
2013-4-2,60.8,49.4,41.0,40.2,36.7,34.2,77,63,44,30.03,29.95,6,3,11,0.00
2013-4-3,65.8,51.7,41.4,37.3,32.7,27.4,76,52,28,30.01,29.84,7,3,15,0.00
2013-4-4,61.3,52.1,44.6,40.6,36.0,32.6,72,54,41,29.84,29.64,7,2,13,0.00
2013-4-5,54.7,45.5,41.0,38.8,35.5,32.7,80,69,48,29.85,29.77,6,3,13,0.00
2013-4-6,52.7,44.2,39.4,36.9,34.3,30.1,83,69,43,29.85,29.67,6,3,12,0.00
2013-4-7,47.8,40.6,33.3,36.5,29.6,22.2,85,66,46,29.73,29.55,7,3,14,0.00
2013-4-8,46.2,37.9,30.0,26.0,23.2,20.1,69,56,44,30.03,29.72,7,4,13,0.00
2013-4-9,54.7,45.7,30.9,33.7,28.3,22.2,77,53,30,30.14,30.08,6,2,12,0.00
2013-4-10,58.8,48.3,38.7,43.3,34.8,28.2,73,60,39,30.10,29.96,9,4,21,0.00
2013-4-11,53.1,44.3,34.9,28.8,25.7,21.9,71,50,34,30.07,29.96,5,2,10,0.00
2013-4-12,57.4,51.0,36.5,32.1,27.0,19.4,72,41,25,29.88,29.64,7,4,14,0.00
2013-4-13,46.2,39.3,32.4,29.9,20.4,18.1,61,47,34,29.80,29.64,9,4,16,0.58
2013-4-14,43.2,34.8,29.7,25.6,20.7,17.2,73,56,43,29.82,29.63,6,2,10,0.00
2013-4-15,38.7,33.8,30.6,30.8,27.9,25.7,85,79,64,29.87,29.65,6,3,12,0.17
2013-4-16,40.3,33.9,30.0,30.1,26.3,22.6,87,74,51,30.09,29.85,4,3,10,0.14
2013-4-17,47.8,37.8,29.7,25.6,21.4,16.8,77,53,34,30.16,30.09,5,2,12,0.00
2013-4-18,57.6,45.2,34.9,37.0,31.3,23.9,69,59,45,30.15,30.06,6,3,10,0.00
2013-4-19,56.3,47.4,40.6,39.6,35.0,31.3,77,63,43,30.06,29.92,11,4,15,0.00
2013-4-20,55.6,45.8,36.5,34.7,30.6,26.0,76,57,32,30.03,29.96,7,3,11,0.00
2013-4-21,57.4,46.6,38.5,37.8,33.0,27.7,74,59,45,30.03,29.95,8,4,14,0.00
2013-4-22,51.8,42.8,36.3,33.8,24.8,14.0,78,52,30,30.20,30.03,5,2,10,0.00
2013-4-23,59.4,44.3,30.6,21.6,13.4,2.2,57,33,10,30.19,29.95,5,2,10,0.00
2013-4-24,64.4,49.1,35.4,23.2,17.4,11.8,43,30,13,30.12,29.90,3,1,6,0.00
2013-4-25,68.9,56.0,44.2,33.9,26.4,18.7,46,32,25,30.00,29.87,7,3,12,0.00
2013-4-26,72.3,58.9,47.1,36.6,30.3,16.3,55,37,12,30.09,30.00,6,3,11,0.00
2013-4-27,67.5,57.4,47.5,36.3,30.3,25.5,53,37,24,30.10,29.98,8,4,15,0.00
2013-4-28,61.0,52.4,43.0,36.1,29.4,25.2,55,42,30,30.03,29.91,6,2,13,0.00
2013-4-29,55.4,48.1,37.0,38.6,30.8,21.7,72,53,34,29.91,29.83,8,4,17,0.00
2013-4-30,50.4,38.8,29.3,23.1,19.3,17.3,62,47,30,30.17,29.89,6,2,11,0.00
2013-5-1,59.0,44.6,30.6,24.6,19.9,16.4,65,41,20,30.33,30.18,3,2,7,0.00
2013-5-2,70.3,55.1,38.7,25.9,17.0,-4.3,55,27,5,30.33,30.10,4,2,7,0.00
2013-5-3,67.3,57.3,46.9,31.1,26.9,20.4,46,32,22,30.13,30.01,5,2,10,0.00
2013-5-4,65.7,56.1,49.1,33.2,28.9,24.2,45,36,29,30.03,29.81,7,4,16,0.00
2013-5-5,68.9,57.1,46.2,35.4,30.7,26.4,51,38,28,29.82,29.67,7,4,14,0.00
2013-5-6,75.4,62.5,51.6,40.4,32.6,27.0,50,34,20,29.76,29.65,5,3,11,0.00
2013-5-7,73.4,62.0,52.2,43.8,40.3,31.0,67,47,22,29.82,29.72,8,3,15,0.00
2013-5-8,75.7,61.9,51.1,45.7,40.4,30.2,69,48,20,29.94,29.82,6,2,10,0.00
2013-5-9,77.5,63.1,52.5,48.4,43.4,35.8,68,51,23,30.00,29.91,7,3,16,0.00
2013-5-10,80.6,66.7,55.8,49.4,43.3,35.3,64,45,22,30.05,29.97,5,2,11,0.00
2013-5-11,82.2,69.0,57.9,52.0,46.6,35.6,66,47,22,30.05,29.90,7,3,12,0.00
2013-5-12,80.8,68.2,60.6,51.5,47.1,42.6,67,49,27,29.95,29.84,5,2,10,0.00
2013-5-13,70.0,59.1,47.5,47.8,40.9,33.1,69,52,36,29.96,29.85,7,2,20,0.00
2013-5-14,63.9,52.8,42.8,37.9,35.2,32.3,69,53,34,29.98,29.86,5,2,8,0.00
2013-5-15,61.2,51.7,45.3,44.7,37.8,32.5,72,60,38,29.92,29.83,4,1,7,0.02
2013-5-16,56.5,49.5,44.4,45.4,40.1,36.1,81,70,53,29.86,29.75,5,1,10,0.03
2013-5-17,55.4,48.0,43.0,41.0,38.0,33.8,85,69,52,29.91,29.80,4,1,8,0.03
2013-5-18,56.5,46.5,39.0,45.4,35.9,31.7,77,67,49,30.08,29.92,5,2,11,0.05
2013-5-19,61.3,49.6,40.3,40.8,35.4,33.4,77,60,38,30.16,30.07,6,3,12,0.00
2013-5-20,70.9,55.9,41.7,40.9,35.7,28.8,74,50,23,30.13,29.77,4,2,8,0.00
2013-5-21,57.7,49.4,36.1,41.1,31.4,22.0,73,51,33,29.76,29.60,6,3,16,0.00
2013-5-22,47.8,39.8,32.9,32.2,26.3,20.6,70,58,50,29.79,29.74,6,4,18,0.00
2013-5-23,53.2,44.5,35.1,31.7,28.3,25.2,68,54,38,29.85,29.78,5,2,10,0.00
2013-5-24,57.2,46.3,39.4,32.6,30.5,28.4,73,55,36,29.89,29.81,5,2,10,0.00
2013-5-25,60.1,48.8,37.9,41.4,33.9,29.9,78,58,34,29.89,29.79,5,2,10,0.00
2013-5-26,56.1,50.0,45.0,42.8,39.7,34.7,86,69,49,29.89,29.81,4,2,8,0.12
2013-5-27,57.0,48.6,43.7,48.2,40.1,34.3,82,72,64,29.87,29.68,5,3,12,0.03
2013-5-28,64.4,52.5,43.5,41.5,37.3,33.0,76,58,36,29.77,29.64,4,2,12,0.02
2013-5-29,61.5,51.2,44.2,43.5,38.2,33.3,83,62,41,29.84,29.58,7,3,18,0.14
2013-5-30,61.5,48.3,38.7,36.4,33.1,30.9,74,57,38,30.03,29.84,5,2,10,0.00
2013-5-31,68.2,52.8,38.3,37.9,33.2,29.2,78,51,25,30.10,30.02,3,2,9,0.00
2013-6-1,73.4,59.2,46.6,43.1,38.3,35.0,69,48,28,30.07,29.86,6,2,11,0.00
2013-6-2,71.8,57.7,48.9,44.4,38.8,28.9,78,52,24,29.90,29.80,6,2,11,0.00
2013-6-3,73.6,58.6,46.6,40.3,34.0,25.5,71,43,23,29.91,29.83,4,2,11,0.00
2013-6-4,77.2,62.3,48.7,36.7,31.2,26.0,45,32,20,29.95,29.88,4,2,7,0.00
2013-6-5,82.4,67.9,53.6,46.1,40.0,33.2,59,38,20,29.95,29.82,5,2,8,0.00
2013-6-6,84.2,69.0,57.0,51.2,45.7,38.5,64,45,22,29.89,29.80,6,2,11,0.00
2013-6-7,80.6,67.8,57.2,48.9,45.5,40.1,68,47,29,29.93,29.85,6,2,11,0.00
2013-6-8,84.4,68.5,56.7,47.0,39.3,21.5,66,40,12,29.95,29.85,6,2,12,0.00
2013-6-9,80.6,66.3,55.8,47.1,38.3,27.6,61,39,15,29.88,29.72,6,2,10,0.00
2013-6-10,75.9,60.9,49.1,37.6,33.0,27.6,56,38,19,29.77,29.62,6,2,12,0.00
2013-6-11,61.9,52.7,45.1,38.2,34.3,30.3,66,51,34,29.92,29.72,5,2,12,0.00
2013-6-12,61.9,50.3,41.0,36.5,32.6,29.8,68,52,33,29.95,29.88,6,2,14,0.00
2013-6-13,53.6,47.9,42.6,43.3,34.6,30.1,73,60,48,30.07,29.95,7,2,13,0.19
2013-6-14,68.9,54.6,41.7,39.0,33.1,26.6,75,48,23,30.08,29.86,5,2,10,0.00
2013-6-15,75.9,61.7,48.0,45.5,37.9,29.4,67,44,20,29.87,29.74,6,2,10,0.00
2013-6-16,75.9,62.9,53.6,53.9,44.5,39.9,67,52,30,29.94,29.82,6,2,9,0.12
2013-6-17,73.6,61.5,51.8,47.8,44.3,41.8,75,55,34,29.95,29.75,4,2,9,0.00
2013-6-18,59.9,53.1,47.8,44.6,41.3,35.3,77,65,46,29.82,29.72,6,2,14,0.00
2013-6-19,57.6,49.1,43.5,44.9,38.5,34.7,80,67,50,29.91,29.76,4,1,8,0.22
2013-6-20,60.6,49.4,41.0,38.6,35.7,33.7,77,60,41,29.95,29.87,6,2,11,0.00
2013-6-21,59.0,50.9,45.0,40.7,38.7,35.4,78,63,49,30.00,29.95,6,2,10,0.00
2013-6-22,72.5,58.6,45.5,44.1,40.8,37.4,74,54,32,29.98,29.78,4,2,8,0.00
2013-6-23,60.8,57.5,54.9,54.2,49.4,41.9,91,75,55,29.79,29.59,4,1,8,0.31
2013-6-24,56.3,52.7,48.9,52.3,48.1,45.1,91,84,78,29.66,29.56,4,1,7,0.16
2013-6-25,63.1,55.9,50.7,51.9,47.3,44.4,87,73,59,29.79,29.64,5,2,12,0.06
2013-6-26,63.5,57.7,53.1,55.2,50.7,46.1,83,77,72,29.95,29.79,3,1,8,0.00
2013-6-27,57.4,53.8,52.0,52.9,49.8,48.5,92,86,81,29.99,29.93,2,1,3,0.00
2013-7-2,92.3,85.1,77.0,55.9,48.4,42.1,48,30,20,29.92,29.87,5,2,11,0.00
2013-7-3,88.2,78.4,67.1,59.7,49.7,40.3,74,38,29,29.98,29.86,6,3,11,0.00
2013-7-4,82.6,71.9,60.3,45.1,38.3,31.7,54,32,17,29.92,29.77,6,3,11,0.00
2013-7-5,77.2,63.2,54.0,45.0,36.7,25.5,69,41,20,29.87,29.72,5,2,9,0.00
2013-7-6,81.5,64.7,50.0,44.6,34.9,28.0,61,36,17,29.82,29.66,4,2,9,0.00
2013-7-7,82.6,66.3,57.4,48.5,44.3,39.5,63,46,23,29.81,29.68,3,1,6,0.00
2013-7-8,84.7,70.2,57.0,47.6,38.6,30.0,64,36,15,29.91,29.81,6,2,10,0.00
2013-7-9,88.2,79.7,67.3,50.3,44.1,32.6,49,30,14,29.95,29.83,6,2,12,0.00
2013-7-10,86.7,73.5,64.4,52.5,45.2,34.2,57,39,19,29.94,29.72,5,2,9,0.00
2013-7-11,79.3,67.0,56.7,47.5,42.4,37.0,65,43,23,29.84,29.73,6,2,14,0.00
2013-7-12,76.1,63.3,53.6,42.3,35.5,20.8,59,38,13,29.88,29.75,5,2,12,0.00
2013-7-13,75.2,62.0,49.1,39.6,33.5,23.7,65,38,20,29.96,29.87,4,2,8,0.00
2013-7-14,85.5,69.6,55.4,44.4,32.0,21.7,43,26,14,29.97,29.81,6,2,11,0.00
2013-7-15,82.9,70.0,57.2,44.4,37.6,29.8,56,33,18,29.86,29.71,5,2,9,0.00
2013-7-16,81.0,69.1,61.3,43.7,35.6,29.4,36,30,21,29.83,29.72,6,3,10,0.00
2013-7-17,84.2,70.9,60.1,43.3,37.2,29.7,53,32,14,29.98,29.83,6,4,15,0.00
2013-7-18,88.3,72.8,59.5,47.6,38.3,23.3,53,33,10,30.00,29.86,4,2,10,0.00
2013-7-19,87.4,73.9,59.9,47.5,30.3,8.9,46,24,6,29.95,29.81,4,2,8,0.00
2013-7-20,90.5,75.4,63.1,48.1,31.3,3.1,50,25,5,29.87,29.75,4,2,9,0.00
2013-7-21,89.6,73.6,61.5,45.9,31.5,7.5,54,26,5,29.80,29.71,6,3,13,0.00
2013-7-22,90.0,74.1,61.3,41.6,31.6,8.8,48,26,5,29.85,29.78,6,2,11,0.00
2013-7-23,90.3,75.6,64.2,45.9,35.6,23.5,47,27,10,29.88,29.77,6,2,11,0.00
2013-7-24,87.1,74.7,63.9,47.1,36.5,21.4,48,28,11,29.90,29.82,4,2,10,0.00
2013-7-25,90.1,76.4,64.6,48.0,33.9,18.7,48,26,10,29.92,29.85,7,2,11,0.00
2013-7-26,91.9,77.3,66.4,41.4,26.7,10.0,33,17,5,29.95,29.86,7,2,15,0.00
2013-7-27,82.2,70.1,60.8,42.6,33.4,21.1,47,28,11,29.96,29.78,6,2,10,0.00
2013-7-28,80.8,66.7,56.3,41.0,34.0,23.3,49,33,13,29.81,29.72,6,3,11,0.00
2013-7-29,78.8,66.7,56.1,44.5,39.1,30.8,58,39,18,29.85,29.73,4,2,8,0.00
2013-7-30,81.7,68.3,56.1,44.7,35.2,16.8,56,34,10,29.96,29.85,6,2,11,0.00
2013-7-31,79.3,67.9,61.5,49.1,42.8,30.9,59,42,20,29.95,29.82,5,1,9,0.02
2013-8-1,67.8,60.0,53.2,55.2,47.6,41.6,84,65,47,29.91,29.83,5,2,10,0.26
2013-8-2,72.3,59.7,49.6,46.4,42.1,36.8,73,54,30,29.95,29.88,5,3,9,0.00
2013-8-3,77.4,65.3,52.9,47.4,40.4,29.8,73,44,20,29.96,29.84,5,2,8,0.00
2013-8-4,82.6,70.0,57.9,49.1,43.6,37.3,62,41,22,29.92,29.79,6,2,10,0.00
2013-8-5,82.0,71.3,60.6,51.2,44.4,31.5,67,41,18,29.89,29.79,5,2,12,0.00
2013-8-6,85.5,72.2,60.4,51.6,42.6,30.0,59,38,15,29.88,29.78,8,3,11,0.00
2013-8-7,77.9,68.9,62.2,45.2,41.5,35.6,50,38,22,29.88,29.83,6,2,10,0.00
2013-8-8,79.3,69.4,59.7,46.9,42.0,35.2,53,39,22,29.87,29.77,4,1,8,0.00
2013-8-9,78.1,67.0,58.6,57.0,48.1,43.5,73,52,30,29.85,29.73,5,2,15,0.08
2013-8-10,70.2,61.5,55.9,52.2,48.4,45.2,71,63,47,29.92,29.82,6,2,13,0.03
2013-8-11,74.8,63.2,53.8,50.0,46.7,41.7,74,57,32,29.93,29.83,7,3,13,0.00
2013-8-12,77.7,65.8,56.5,52.6,48.7,43.8,75,56,31,29.92,29.82,4,2,8,0.00
2013-8-13,79.7,67.8,56.7,48.8,45.6,38.5,73,47,24,29.96,29.83,7,3,14,0.00
2013-8-14,82.9,71.1,60.8,49.3,45.6,40.4,56,42,23,29.89,29.77,4,2,10,0.00
2013-8-15,83.3,69.9,59.7,52.0,47.0,39.3,62,46,21,29.87,29.77,6,2,11,0.00
2013-8-16,80.8,69.7,61.5,55.6,53.1,49.7,70,56,34,29.92,29.84,5,2,8,0.00
2013-8-17,79.0,68.2,59.9,56.2,51.7,47.9,77,57,36,29.95,29.84,6,2,10,0.00
2013-8-18,81.7,69.1,57.9,51.5,47.1,38.6,69,49,25,29.98,29.88,5,2,8,0.00
2013-8-19,82.2,70.0,59.7,50.5,46.8,40.2,68,46,23,29.96,29.85,6,2,10,0.00
2013-8-20,78.6,67.6,55.9,49.6,34.7,13.5,70,37,9,29.96,29.85,3,2,8,0.00
2013-8-21,77.9,68.4,59.4,43.4,34.8,26.3,52,31,20,29.93,29.83,4,2,7,0.00
2013-8-22,75.7,65.5,59.2,53.8,45.2,34.4,70,49,30,29.87,29.80,6,2,13,0.05
2013-8-23,74.8,64.0,55.4,51.4,48.2,45.0,73,58,36,29.82,29.72,7,4,15,0.00
2013-8-24,73.0,62.8,54.5,50.9,48.4,44.7,76,61,38,29.81,29.68,5,1,9,0.00
2013-8-25,67.3,59.3,54.5,57.8,50.9,48.2,84,74,58,29.82,29.69,6,1,12,0.14
2013-8-26,71.2,60.5,53.4,51.4,47.5,44.6,79,64,42,29.84,29.79,5,3,10,0.00
2013-8-27,80.8,64.7,52.3,51.2,46.7,40.7,77,55,25,29.86,29.67,6,2,13,0.00
2013-8-28,82.8,72.2,57.9,51.8,46.0,38.8,73,43,24,29.83,29.70,6,3,15,0.00
2013-8-29,78.3,67.4,60.8,52.0,48.9,42.0,70,53,31,29.97,29.80,5,2,10,0.00
2013-8-30,79.3,66.5,56.1,53.8,49.5,43.8,76,57,30,30.04,29.87,5,2,11,0.00
2013-8-31,84.2,68.5,55.9,53.7,49.5,45.5,79,54,28,29.96,29.74,4,2,8,0.00
2013-9-1,86.5,71.4,59.7,51.2,42.2,21.9,64,40,10,29.81,29.65,5,2,14,0.00
2013-9-2,83.8,67.7,57.2,51.4,48.0,38.0,71,52,20,29.85,29.71,6,2,12,0.00
2013-9-3,79.9,64.8,56.1,52.0,47.2,33.6,77,56,20,29.88,29.79,6,3,10,0.00
2013-9-4,80.4,64.7,56.5,49.0,45.9,36.3,73,54,21,29.90,29.82,5,2,10,0.00
2013-9-5,69.1,59.3,52.9,50.8,46.7,42.1,74,63,44,29.93,29.79,6,2,15,0.00
2013-9-6,68.0,57.7,50.2,49.0,45.6,42.4,82,65,48,30.02,29.93,6,3,12,0.03
2013-9-7,74.3,60.7,49.6,50.8,46.5,43.9,82,62,36,30.00,29.87,5,2,9,0.00
2013-9-8,72.9,62.6,54.3,50.5,46.9,42.4,77,58,35,29.98,29.93,4,2,8,0.00
2013-9-9,78.1,65.7,56.1,48.0,42.6,34.0,63,46,23,29.96,29.85,5,2,8,0.00
2013-9-10,80.6,68.6,58.1,49.3,44.0,37.9,63,43,23,29.91,29.82,4,2,10,0.00
2013-9-11,82.4,69.9,58.3,50.5,44.7,40.0,66,42,24,29.95,29.86,4,2,7,0.00
2013-9-12,84.7,73.0,63.1,50.1,43.2,36.4,52,36,21,29.92,29.81,4,2,6,0.00
2013-9-13,76.1,69.6,60.6,51.1,42.7,37.3,58,39,25,29.85,29.73,3,1,6,0.00
2013-9-14,82.8,70.5,61.0,51.7,46.8,40.6,63,45,24,29.78,29.66,4,2,6,0.00
2013-9-15,83.8,68.9,56.7,50.4,43.3,26.6,66,43,13,29.73,29.57,5,2,12,0.00
2013-9-16,68.4,58.8,53.1,46.0,43.3,40.8,67,57,44,29.82,29.74,4,2,10,0.00
2013-9-17,56.8,52.0,46.8,45.9,42.0,37.3,79,69,58,29.86,29.70,6,2,11,0.00
2013-9-18,61.7,52.0,45.3,40.1,36.8,32.3,72,58,35,29.97,29.86,4,2,10,0.00
2013-9-19,71.8,56.7,44.2,40.3,35.0,31.6,67,47,24,29.94,29.75,5,2,8,0.00
2013-9-20,71.6,57.6,48.2,43.4,37.1,32.2,71,48,24,29.76,29.53,7,3,11,0.00
2013-9-21,60.6,52.6,46.6,44.4,40.1,37.5,78,63,47,29.68,29.59,5,2,12,0.02
2013-9-22,57.4,50.1,45.1,45.1,40.3,37.6,78,69,54,29.76,29.66,6,4,15,0.00
2013-9-23,60.6,53.0,48.0,43.8,39.7,34.8,67,60,48,29.88,29.76,5,2,11,0.00
2013-9-24,51.4,47.9,42.8,43.4,39.3,35.8,84,72,60,29.86,29.72,4,1,7,0.09
2013-9-25,49.5,43.6,39.7,37.4,34.5,30.9,83,70,54,29.86,29.71,4,2,10,0.02
2013-9-26,51.1,43.9,37.6,36.4,31.9,28.9,74,63,52,30.03,29.86,4,2,8,0.00
2013-9-27,57.9,46.6,36.9,42.7,35.3,29.4,79,66,35,30.04,29.91,7,4,14,0.00
2013-9-28,60.6,52.4,48.2,49.1,44.5,41.6,87,75,55,29.91,29.55,7,4,15,0.39
2013-9-29,49.8,46.0,42.3,47.9,41.4,36.7,95,84,70,29.69,29.48,7,3,14,0.89
2013-9-30,50.0,44.7,38.5,47.6,35.3,31.1,94,70,56,29.90,29.52,6,3,20,0.06
2013-10-1,50.9,42.9,37.8,37.5,32.4,27.9,78,66,53,30.05,29.88,6,3,13,0.00
2013-10-2,45.9,39.3,34.2,36.8,30.4,26.4,82,70,53,30.04,29.90,6,2,10,0.00
2013-10-3,47.3,39.3,33.4,32.9,30.8,28.8,87,72,54,30.26,29.99,3,1,7,0.00
2013-10-4,53.2,43.3,35.6,33.5,30.5,26.9,81,63,37,30.33,30.24,2,1,6,0.00
2013-10-5,64.0,49.3,37.6,35.5,30.6,24.6,71,50,31,30.27,30.09,10,3,16,0.00
2013-10-6,66.6,54.1,44.1,36.3,30.6,25.5,56,42,29,30.11,29.90,9,4,16,0.00
2013-10-7,54.5,48.5,39.6,37.3,30.3,23.2,68,50,40,29.97,29.88,6,3,12,0.00
2013-10-8,47.1,41.6,37.6,37.4,32.7,28.9,83,71,57,29.98,29.82,6,2,12,0.02
2013-10-9,42.6,38.9,36.1,34.9,32.8,31.6,87,79,69,29.94,29.85,4,2,8,0.03
2013-10-10,53.2,43.5,36.5,34.5,31.6,29.0,78,64,48,29.94,29.81,6,2,10,0.00
2013-10-11,49.8,42.6,36.1,36.1,32.8,29.8,79,68,56,29.99,29.93,7,3,14,0.00
2013-10-12,45.3,41.0,37.6,36.3,33.7,31.4,85,75,62,30.01,29.91,3,1,6,0.00
2013-10-13,47.3,42.4,39.2,38.2,35.3,32.3,91,77,58,30.17,30.01,3,1,6,0.00
2013-10-14,50.7,42.2,35.6,35.0,31.8,26.8,84,68,47,30.25,30.16,3,1,7,0.00
2013-10-15,54.7,43.0,33.8,32.5,28.7,25.2,72,57,40,30.24,30.06,4,1,6,0.00
2013-10-16,57.7,45.8,40.8,30.1,26.4,24.1,59,47,31,30.06,29.99,8,4,14,0.00
2013-11-23,31.8,27.3,24.3,15.2,12.9,11.3,58,54,50,30.13,30.03,3,0,5,0.00
2013-11-24,46.4,33.9,25.9,20.6,16.2,12.6,57,49,31,30.07,29.98,10,2,18,0.00
2013-11-25,43.5,34.6,30.2,21.5,18.2,14.8,59,51,41,30.12,30.07,6,1,10,0.00
2013-11-26,43.7,34.5,28.0,23.0,19.5,16.3,61,54,41,30.08,29.92,3,0,6,0.00
2013-11-27,41.0,33.6,28.4,25.2,21.0,18.7,70,60,52,29.93,29.82,3,1,4,0.00
2013-11-28,43.9,32.4,26.8,28.8,22.9,19.5,75,68,55,29.98,29.88,7,1,11,0.00
2013-11-29,50.4,42.9,37.2,28.9,25.4,23.1,57,50,39,30.10,30.00,7,3,13,0.00
2013-11-30,50.0,43.6,39.7,35.5,32.2,27.6,71,64,55,30.17,30.09,7,2,14,0.00
2013-12-1,52.9,47.2,42.8,42.7,37.1,30.8,85,68,56,30.09,29.76,9,6,22,0.00
2013-12-2,46.8,36.1,27.0,36.1,27.5,16.5,89,71,57,29.82,29.69,7,2,11,0.11
2013-12-3,27.1,21.8,15.4,19.6,11.8,2.3,79,65,54,29.97,29.79,6,2,10,0.00
2013-12-4,18.7,14.4,10.6,2.7,-0.5,-2.5,57,51,45,30.02,29.96,4,2,7,0.00
2013-12-5,23.5,13.3,5.2,6.6,0.6,-6.0,61,56,47,30.00,29.87,10,3,17,0.00
2013-12-6,13.5,9.9,7.0,2.9,1.4,0.2,75,68,61,29.89,29.71,7,3,12,0.00
2013-12-7,7.2,2.0,-5.3,0.7,-7.5,-16.3,75,64,53,30.03,29.75,10,4,17,0.00
2013-12-8,20.1,8.0,-2.2,5.0,-4.1,-13.7,63,57,49,30.23,30.02,10,4,19,0.00
2013-12-9,29.5,20.5,10.6,17.7,7.2,-2.0,66,56,48,30.23,30.14,13,8,24,0.00
2013-12-10,37.8,29.4,23.2,23.1,18.0,13.2,75,63,53,30.18,30.13,10,3,16,0.00
2013-12-11,39.0,29.7,22.8,25.9,21.3,15.8,81,71,58,30.14,30.05,10,5,17,0.00
2013-12-12,40.3,34.1,27.0,28.7,22.0,16.1,79,61,49,30.05,29.95,10,6,20,0.00
2013-12-13,41.9,35.7,32.4,32.4,29.7,27.6,85,79,67,30.24,30.01,10,3,15,0.00
2013-12-14,43.7,39.1,32.7,30.6,27.9,25.0,85,65,50,30.24,30.20,14,7,26,0.00
2013-12-15,48.9,42.2,37.6,34.8,25.2,17.0,75,52,35,30.25,30.18,10,4,18,0.00
2013-12-16,47.3,41.0,36.0,30.4,24.7,21.7,69,53,41,30.25,30.14,9,5,19,0.00
2013-12-17,51.8,44.2,38.8,26.9,22.3,18.7,54,42,34,30.14,29.96,11,5,23,0.00
2013-12-18,40.3,37.4,31.1,29.6,25.9,22.2,84,64,49,29.96,29.80,5,1,8,0.00
2013-12-19,31.3,25.6,22.3,24.0,13.1,9.2,77,59,45,30.04,29.83,7,2,12,0.00
2013-12-20,42.6,32.9,24.4,36.1,22.1,6.6,81,65,41,29.94,29.69,10,5,20,0.00
2013-12-21,45.7,39.6,35.2,33.6,30.1,26.5,80,69,51,30.02,29.73,8,3,16,0.00
2013-12-22,47.7,42.1,38.7,36.9,32.6,28.6,78,69,58,30.17,30.01,10,3,17,0.00
2013-12-23,50.2,42.8,36.1,37.2,30.0,25.0,73,60,50,30.28,30.10,9,4,17,0.00
2013-12-24,42.1,34.9,30.2,29.6,25.9,22.5,79,70,48,30.34,30.28,9,2,18,0.00
2013-12-25,46.9,40.2,32.7,24.9,21.9,18.9,68,49,36,30.28,30.19,13,7,22,0.00
2013-12-26,52.5,44.8,39.7,27.1,21.4,15.5,56,40,33,30.19,30.10,11,5,18,0.00
2013-12-27,48.0,43.0,37.8,23.9,20.2,15.0,54,41,31,30.10,29.99,13,5,21,0.00
2013-12-28,41.9,34.9,29.7,24.9,19.2,15.2,64,53,35,30.20,30.05,2,1,5,0.00
2013-12-29,42.4,36.6,29.1,23.4,16.8,13.2,62,45,36,30.19,30.04,10,4,17,0.00
2013-12-30,44.6,41.3,36.9,23.5,18.8,14.5,49,41,31,30.05,29.95,10,6,19,0.00
2013-12-31,49.1,44.0,39.9,23.6,20.1,16.6,50,39,33,30.10,29.99,8,3,13,0.00
2014-1-1,47.8,39.5,34.0,32.4,27.3,21.7,71,62,46,30.13,30.06,7,2,12,0.00
2014-1-2,53.8,44.4,36.0,33.4,27.3,24.8,66,52,40,30.07,29.84,11,6,20,0.00